Aviation Digital Data Service (ADDS)

Output produced by METARs form (1459 UTC 03 March 2015)
found at http://aviationweather.gov/adds/metars/
 
KTOL 031313Z 0313/0412 14007KT 6SM -SN BKN035 OVC060 
     TEMPO 0313/0315 1 1/2SM -SN OVC030 
     FM031600 15010KT 4SM -FZRAPL BR BKN015 OVC050 
     FM031800 20015KT 2SM -RA BR BKN005 OVC015 WS020/22045KT 
     FM040100 25015G25KT 6SM BR SCT005 OVC015 
     FM040800 28012KT P6SM BKN018